Time;durP1;ratioP1;P1;durP2;ratioP2;P2;SDS_P1;SDS_P2;PMS_P1;PMS_P2;Temp;Humidity;BMP_temperature;BMP_pressure;BME280_temperature;BME280_humidity;BME280_pressure;Samples;Min_cycle;Max_cycle;Signal;HPM_P1;HPM_P2
2024/02/15 00:02:04;;;;;;;8.20;3.67;;;12.90;99.90;;;;;;5037272;28;20034;-52
2024/02/15 00:04:31;;;;;;;6.05;3.53;;;12.90;99.90;;;;;;5040360;28;20470;-63
2024/02/15 00:06:56;;;;;;;8.90;3.42;;;12.90;99.90;;;;;;5041721;28;20079;-52
2024/02/15 00:09:22;;;;;;;12.00;3.67;;;12.80;99.90;;;;;;5037103;28;20037;-52
2024/02/15 00:11:47;;;;;;;11.65;3.80;;;12.80;99.90;;;;;;5033834;28;20018;-52
2024/02/15 00:14:13;;;;;;;11.57;4.03;;;12.90;99.90;;;;;;5034176;28;20022;-53
2024/02/15 00:16:39;;;;;;;10.70;4.07;;;12.90;99.90;;;;;;5043486;28;20094;-54
2024/02/15 00:19:06;;;;;;;9.95;3.67;;;12.80;99.90;;;;;;5054054;28;20100;-53
2024/02/15 00:21:32;;;;;;;8.05;3.03;;;12.80;99.90;;;;;;5035787;28;20108;-74
2024/02/15 00:23:59;;;;;;;13.07;3.78;;;12.90;99.90;;;;;;5050224;28;20485;-52
2024/02/15 00:26:25;;;;;;;6.10;3.13;;;12.90;99.90;;;;;;5042218;28;20026;-50
2024/02/15 00:28:51;;;;;;;7.75;3.33;;;12.90;99.90;;;;;;5037580;28;20028;-52
2024/02/15 00:31:17;;;;;;;13.95;3.40;;;12.90;99.90;;;;;;5053485;28;20466;-51
2024/02/15 00:33:43;;;;;;;14.50;3.40;;;12.90;99.90;;;;;;5053714;28;20389;-53
2024/02/15 00:36:08;;;;;;;8.23;3.13;;;12.90;99.90;;;;;;5051599;28;20473;-51
2024/02/15 00:38:35;;;;;;;8.75;3.55;;;12.80;99.90;;;;;;5053573;28;20527;-52
2024/02/15 00:41:00;;;;;;;10.27;2.95;;;12.90;99.90;;;;;;5036438;28;20029;-37
2024/02/15 00:43:27;;;;;;;9.52;3.50;;;12.90;99.90;;;;;;5033702;28;20075;-37
2024/02/15 00:45:53;;;;;;;7.93;3.10;;;12.90;99.90;;;;;;5033476;28;20049;-37
2024/02/15 00:48:18;;;;;;;6.97;2.80;;;12.90;99.90;;;;;;5033524;28;20422;-37
2024/02/15 00:50:44;;;;;;;12.40;3.78;;;12.80;99.90;;;;;;5040616;28;20029;-37
2024/02/15 00:53:10;;;;;;;5.70;3.08;;;12.90;99.90;;;;;;5053843;28;20036;-53
2024/02/15 00:55:36;;;;;;;7.95;3.47;;;12.80;99.90;;;;;;5042026;28;20025;-53
2024/02/15 00:58:01;;;;;;;4.05;2.60;;;12.90;99.90;;;;;;5050456;28;20060;-67
2024/02/15 01:00:28;;;;;;;8.82;2.92;;;12.90;99.90;;;;;;5053256;28;20021;-52
2024/02/15 01:02:55;;;;;;;13.00;3.30;;;12.90;99.90;;;;;;5049993;28;20525;-64
2024/02/15 01:05:21;;;;;;;6.32;3.42;;;12.90;99.90;;;;;;5040214;28;20017;-53
2024/02/15 01:07:48;;;;;;;9.18;3.25;;;12.90;99.90;;;;;;5033576;28;20509;-53
2024/02/15 01:10:14;;;;;;;8.07;3.97;;;12.80;99.90;;;;;;5032101;28;20021;-53
2024/02/15 01:12:40;;;;;;;6.60;3.63;;;12.90;99.90;;;;;;5035177;28;20155;-53
2024/02/15 01:15:06;;;;;;;16.92;4.57;;;12.90;99.90;;;;;;5035072;28;20057;-53
2024/02/15 01:17:32;;;;;;;9.48;3.83;;;12.90;99.90;;;;;;5033107;28;20052;-53
2024/02/15 01:19:57;;;;;;;12.40;3.97;;;12.90;99.90;;;;;;5033473;28;20030;-54
2024/02/15 01:22:27;;;;;;;10.48;4.68;;;12.90;99.90;;;;;;5034427;28;20060;-53
2024/02/15 01:24:53;;;;;;;9.02;4.00;;;12.90;99.90;;;;;;5032962;28;20121;-54
2024/02/15 01:27:19;;;;;;;14.27;4.40;;;12.90;99.90;;;;;;5032961;28;20534;-52
2024/02/15 01:29:45;;;;;;;12.93;4.50;;;12.80;99.90;;;;;;5032856;28;20112;-51
2024/02/15 01:32:10;;;;;;;11.45;5.10;;;12.80;99.90;;;;;;5033668;28;20061;-50
2024/02/15 01:34:36;;;;;;;18.73;5.38;;;12.70;99.90;;;;;;5039907;28;20104;-50
2024/02/15 01:37:02;;;;;;;39.70;5.55;;;12.80;99.90;;;;;;5050523;28;20029;-51
2024/02/15 01:39:27;;;;;;;13.35;4.97;;;12.80;99.90;;;;;;5052701;28;20055;-54
2024/02/15 01:41:56;;;;;;;10.55;4.60;;;12.80;99.90;;;;;;5052721;28;20082;-53
2024/02/15 01:44:24;;;;;;;10.38;5.22;;;12.80;99.90;;;;;;5052891;28;20384;-52
2024/02/15 01:46:52;;;;;;;8.77;5.82;;;12.80;99.90;;;;;;5047251;28;20072;-63
2024/02/15 01:49:17;;;;;;;;;;;12.80;99.90;;;;;;5052191;28;20117;-54
2024/02/15 01:51:44;;;;;;;12.82;5.68;;;12.80;99.90;;;;;;5040612;28;19956;-52
2024/02/15 01:54:13;;;;;;;7.13;4.65;;;12.80;99.90;;;;;;5037111;28;20474;-53
2024/02/15 01:56:38;;;;;;;14.52;5.75;;;12.90;99.90;;;;;;5043348;28;20105;-54
2024/02/15 01:59:06;;;;;;;14.07;6.00;;;12.90;99.90;;;;;;5036718;28;20041;-49
2024/02/15 02:01:33;;;;;;;17.00;6.47;;;12.80;99.90;;;;;;5036306;28;20025;-54
2024/02/15 02:03:59;;;;;;;14.47;6.03;;;12.80;99.90;;;;;;5039770;28;20033;-54
2024/02/15 02:06:26;;;;;;;15.75;6.03;;;12.80;99.90;;;;;;5046905;28;20025;-51
2024/02/15 02:08:52;;;;;;;10.30;5.97;;;12.90;99.90;;;;;;5036103;28;20543;-53
2024/02/15 02:11:18;;;;;;;11.82;5.90;;;12.90;99.90;;;;;;5036572;28;20524;-51
2024/02/15 02:13:43;;;;;;;13.60;6.07;;;12.90;99.90;;;;;;5036287;28;20033;-52
2024/02/15 02:16:28;;;;;;;14.80;5.93;;;12.80;99.90;;;;;;5035998;28;20441;-52
2024/02/15 02:18:58;;;;;;;18.02;6.97;;;12.80;99.90;;;;;;5036928;28;20024;-54
2024/02/15 02:21:25;;;;;;;9.35;5.95;;;12.80;99.90;;;;;;5037205;28;20120;-37
2024/02/15 02:23:56;;;;;;;11.82;5.13;;;12.70;99.90;;;;;;5036296;28;20497;-38
2024/02/15 02:26:23;;;;;;;12.77;6.25;;;12.70;99.90;;;;;;5035926;28;20496;-41
2024/02/15 02:28:50;;;;;;;16.33;6.70;;;12.70;99.90;;;;;;5036254;28;20044;-39
2024/02/15 02:31:15;;;;;;;14.30;5.97;;;12.70;99.90;;;;;;5043887;28;20283;-37
2024/02/15 02:33:47;;;;;;;12.88;6.30;;;12.60;99.90;;;;;;5036095;28;20034;-37
2024/02/15 02:36:12;;;;;;;16.00;7.05;;;12.60;99.90;;;;;;5038708;28;20024;-38
2024/02/15 02:38:38;;;;;;;15.60;6.43;;;12.60;99.90;;;;;;5049994;28;20029;-37
2024/02/15 02:41:04;;;;;;;16.00;6.47;;;12.60;99.90;;;;;;5035798;28;20429;-56
2024/02/15 02:43:30;;;;;;;12.55;6.57;;;12.70;99.90;;;;;;5035733;28;20029;-37
2024/02/15 02:45:55;;;;;;;15.02;6.22;;;12.70;99.90;;;;;;5035922;28;20022;-38
2024/02/15 02:48:21;;;;;;;12.98;6.75;;;12.70;99.90;;;;;;5041844;28;20033;-37
2024/02/15 02:50:48;;;;;;;9.27;5.63;;;12.70;99.90;;;;;;5035551;28;20036;-38
2024/02/15 02:53:15;;;;;;;14.77;6.18;;;12.70;99.90;;;;;;5044540;28;20546;-37
2024/02/15 02:55:42;;;;;;;11.95;6.22;;;12.70;99.90;;;;;;5044749;28;20397;-39
2024/02/15 02:58:08;;;;;;;18.03;5.70;;;12.70;99.90;;;;;;5036365;28;20108;-37
2024/02/15 03:00:34;;;;;;;18.80;5.82;;;12.70;99.90;;;;;;5041815;28;20312;-38
2024/02/15 03:03:00;;;;;;;16.38;5.53;;;12.70;99.90;;;;;;5055263;28;20058;-38
2024/02/15 03:05:26;;;;;;;14.30;5.00;;;12.60;99.90;;;;;;5048789;28;20036;-37
2024/02/15 03:07:52;;;;;;;10.90;4.78;;;12.70;99.90;;;;;;5041915;28;20041;-37
2024/02/15 03:10:18;;;;;;;7.25;4.43;;;12.80;99.90;;;;;;5055209;28;20075;-37
2024/02/15 03:12:46;;;;;;;12.10;4.90;;;12.80;99.90;;;;;;5050970;28;20029;-37
2024/02/15 03:15:13;;;;;;;11.52;4.93;;;12.70;99.90;;;;;;5055013;28;20033;-38
2024/02/15 03:17:43;;;;;;;18.67;5.65;;;12.70;99.90;;;;;;5054943;28;20103;-37
2024/02/15 03:20:26;;;;;;;10.05;4.75;;;12.70;99.90;;;;;;5055162;28;20063;-37
2024/02/15 03:22:57;;;;;;;18.13;5.07;;;12.70;99.90;;;;;;5053041;28;20032;-38
2024/02/15 03:25:23;;;;;;;9.57;4.50;;;12.70;99.90;;;;;;5055004;28;20056;-37
2024/02/15 03:27:53;;;;;;;20.58;4.88;;;12.70;99.90;;;;;;5054554;28;20491;-38
2024/02/15 03:30:19;;;;;;;15.50;4.40;;;12.70;99.90;;;;;;5046918;28;20504;-38
2024/02/15 03:32:50;;;;;;;12.88;4.43;;;12.70;99.90;;;;;;5035259;28;20061;-37
2024/02/15 03:35:17;;;;;;;10.98;4.28;;;12.70;99.90;;;;;;5044046;28;20478;-39
2024/02/15 03:37:43;;;;;;;13.45;5.32;;;12.70;99.90;;;;;;5042693;28;20100;-53
2024/02/15 03:40:09;;;;;;;14.35;5.80;;;12.70;99.90;;;;;;5040822;28;20036;-53
2024/02/15 03:42:36;;;;;;;20.05;4.75;;;12.70;99.90;;;;;;5033149;28;20022;-51
2024/02/15 03:45:06;;;;;;;17.13;5.23;;;12.80;99.90;;;;;;5033533;28;20025;-53
2024/02/15 03:47:38;;;;;;;12.52;4.40;;;12.70;99.90;;;;;;5048282;28;20759;-52
2024/02/15 03:50:09;;;;;;;8.23;4.45;;;12.70;99.90;;;;;;5039623;28;20033;-53
2024/02/15 03:52:38;;;;;;;6.82;3.83;;;12.80;99.90;;;;;;5034645;28;20112;-54
2024/02/15 03:55:05;;;;;;;10.52;4.07;;;12.80;99.90;;;;;;5039877;28;20025;-51
2024/02/15 03:57:33;;;;;;;7.18;3.55;;;12.80;99.90;;;;;;5033306;28;20124;-53
2024/02/15 03:59:59;;;;;;;;;;;12.80;99.90;;;;;;5033436;28;20411;-53
2024/02/15 04:02:30;;;;;;;11.45;3.67;;;12.80;99.90;;;;;;5034413;28;19955;-50
2024/02/15 04:04:56;;;;;;;11.10;3.97;;;12.80;99.90;;;;;;5034906;28;20030;-51
2024/02/15 04:07:27;;;;;;;8.95;3.78;;;12.70;99.90;;;;;;5034174;28;20055;-54
2024/02/15 04:09:53;;;;;;;8.48;4.13;;;12.80;99.90;;;;;;5034443;28;20032;-53
2024/02/15 04:12:19;;;;;;;13.98;4.10;;;12.80;99.90;;;;;;5045158;28;20028;-53
2024/02/15 04:14:46;;;;;;;18.05;3.95;;;12.80;99.90;;;;;;5053087;28;20501;-52
2024/02/15 04:17:21;;;;;;;14.07;4.82;;;12.70;99.90;;;;;;5051470;28;20025;-52
2024/02/15 04:19:50;;;;;;;14.57;3.90;;;12.70;99.90;;;;;;5054120;28;20021;-50
2024/02/15 04:22:16;;;;;;;9.95;4.65;;;12.70;99.90;;;;;;5042967;28;20017;-56
2024/02/15 04:24:42;;;;;;;10.48;3.53;;;12.70;99.90;;;;;;5042942;28;20029;-68
2024/02/15 04:27:12;;;;;;;6.78;3.72;;;12.70;99.90;;;;;;5054023;28;20107;-51
2024/02/15 04:29:40;;;;;;;8.48;5.05;;;12.70;99.90;;;;;;5048273;28;20048;-75
2024/02/15 04:32:10;;;;;;;14.57;3.92;;;12.70;99.90;;;;;;5051794;28;20033;-51
2024/02/15 04:34:39;;;;;;;13.68;4.15;;;12.60;99.90;;;;;;5047000;28;20022;-54
2024/02/15 04:37:08;;;;;;;12.73;4.05;;;12.60;99.90;;;;;;5048054;28;20442;-54
2024/02/15 04:39:37;;;;;;;12.93;4.18;;;12.60;99.90;;;;;;5033947;28;20381;-55
2024/02/15 04:42:06;;;;;;;14.70;5.25;;;12.60;99.90;;;;;;5033338;28;20091;-41
2024/02/15 04:44:34;;;;;;;8.98;4.30;;;12.70;99.90;;;;;;5070795;28;20090;-38
2024/02/15 04:47:01;;;;;;;11.68;4.82;;;12.60;99.90;;;;;;5064693;28;20442;-39
2024/02/15 04:49:28;;;;;;;9.20;4.20;;;12.70;99.90;;;;;;5053378;28;20120;-38
2024/02/15 04:51:54;;;;;;;10.63;4.10;;;12.60;99.90;;;;;;5051411;28;20485;-37
2024/02/15 04:54:20;;;;;;;9.32;3.88;;;12.60;99.90;;;;;;5033452;28;20064;-39
2024/02/15 04:56:46;;;;;;;13.32;4.45;;;12.60;99.90;;;;;;5033462;28;20028;-37
2024/02/15 04:59:15;;;;;;;10.10;4.47;;;12.60;99.90;;;;;;5033460;28;20025;-38
2024/02/15 05:01:45;;;;;;;13.20;4.45;;;12.50;99.90;;;;;;5034484;28;20517;-37
2024/02/15 05:04:11;;;;;;;13.07;5.43;;;12.50;99.90;;;;;;5033717;28;20018;-38
2024/02/15 05:06:37;;;;;;;13.13;5.15;;;12.50;99.90;;;;;;5033251;28;20084;-38
2024/02/15 05:09:10;;;;;;;14.75;5.18;;;12.40;99.90;;;;;;5033289;28;20505;-38
2024/02/15 05:11:41;;;;;;;10.05;5.13;;;12.50;99.90;;;;;;5033514;28;20036;-39
2024/02/15 05:14:07;;;;;;;11.68;5.32;;;12.50;99.90;;;;;;5033381;28;20025;-38
2024/02/15 05:16:34;;;;;;;11.00;5.15;;;12.40;99.90;;;;;;5032899;28;20045;-44
2024/02/15 05:18:59;;;;;;;12.50;5.45;;;12.50;99.90;;;;;;5033898;28;20390;-39
2024/02/15 05:21:25;;;;;;;9.60;5.05;;;12.50;99.90;;;;;;5038519;28;20009;-38
2024/02/15 05:23:52;;;;;;;13.82;5.68;;;12.50;99.90;;;;;;5033230;28;20551;-40
2024/02/15 05:26:23;;;;;;;14.30;5.70;;;12.50;99.90;;;;;;5032525;28;20057;-38
2024/02/15 05:28:49;;;;;;;14.48;6.05;;;12.50;99.90;;;;;;5033345;28;20486;-41
2024/02/15 05:31:25;;;;;;;13.45;6.28;;;12.50;99.90;;;;;;5045105;28;20021;-40
2024/02/15 05:33:51;;;;;;;10.10;5.28;;;12.50;99.90;;;;;;5032769;28;20623;-37
2024/02/15 05:36:21;;;;;;;16.65;5.68;;;12.50;99.90;;;;;;5032942;28;20096;-39
2024/02/15 05:38:54;;;;;;;15.38;5.97;;;12.60;99.90;;;;;;5049234;28;20440;-52
2024/02/15 05:41:20;;;;;;;11.82;6.43;;;12.50;99.90;;;;;;5052182;28;20043;-64
2024/02/15 05:43:52;;;;;;;14.07;6.53;;;12.50;99.90;;;;;;5052680;28;20481;-37
2024/02/15 05:46:21;;;;;;;10.45;6.13;;;12.50;99.90;;;;;;5053079;28;20482;-37
2024/02/15 05:48:46;;;;;;;13.70;6.53;;;12.50;99.90;;;;;;5051508;28;20108;-38
2024/02/15 05:51:12;;;;;;;13.00;6.32;;;12.50;99.90;;;;;;5051722;28;20037;-47
2024/02/15 05:53:38;;;;;;;18.67;6.53;;;12.40;99.90;;;;;;5032681;28;20382;-54
2024/02/15 05:56:06;;;;;;;15.70;6.35;;;12.50;99.90;;;;;;5031431;28;20022;-51
2024/02/15 05:58:32;;;;;;;15.45;6.88;;;12.50;99.90;;;;;;5032578;28;20109;-53
2024/02/15 06:01:01;;;;;;;24.27;6.60;;;12.50;99.90;;;;;;5032524;28;20024;-50
2024/02/15 06:03:31;;;;;;;17.65;6.57;;;12.50;99.90;;;;;;5050760;28;20032;-53
2024/02/15 06:05:58;;;;;;;17.58;7.57;;;12.50;99.90;;;;;;5052547;28;20359;-54
2024/02/15 06:08:27;;;;;;;19.52;6.25;;;12.40;99.90;;;;;;5042028;28;20033;-52
2024/02/15 06:10:53;;;;;;;13.23;6.43;;;12.50;99.90;;;;;;5032721;28;20025;-52
2024/02/15 06:13:20;;;;;;;10.95;6.07;;;12.50;99.90;;;;;;5034391;28;20500;-52
2024/02/15 06:15:46;;;;;;;29.15;7.78;;;12.60;99.90;;;;;;5052144;28;20485;-52
2024/02/15 06:18:21;;;;;;;8.60;5.70;;;12.50;99.90;;;;;;5031982;28;20018;-54
2024/02/15 06:20:49;;;;;;;16.45;7.03;;;12.50;99.90;;;;;;5032489;28;20537;-54
2024/02/15 06:23:15;;;;;;;17.70;7.07;;;12.50;99.90;;;;;;5032341;28;20034;-50
2024/02/15 06:25:41;;;;;;;17.90;6.65;;;12.50;99.90;;;;;;5032424;28;20029;-54
2024/02/15 06:28:13;;;;;;;23.70;7.60;;;12.50;99.90;;;;;;5037196;28;20481;-50
2024/02/15 06:41:38;;;;;;;12.55;6.70;;;12.50;99.90;;;;;;5037754;28;20525;-51
2024/02/15 06:44:04;;;;;;;16.33;7.03;;;12.60;99.90;;;;;;5036016;28;20025;-52
2024/02/15 06:46:29;;;;;;;22.73;7.10;;;12.50;99.90;;;;;;5035759;28;20132;-51
2024/02/15 06:48:55;;;;;;;13.40;7.30;;;12.50;99.90;;;;;;5035622;28;20386;-50
2024/02/15 06:51:20;;;;;;;11.25;6.97;;;12.50;99.90;;;;;;5038082;28;20026;-54
2024/02/15 06:53:46;;;;;;;10.50;6.30;;;12.50;99.90;;;;;;5043846;28;20034;-55
2024/02/15 06:56:13;;;;;;;11.85;6.43;;;12.50;99.90;;;;;;5035578;28;20458;-53
2024/02/15 06:58:42;;;;;;;11.50;6.18;;;12.50;99.90;;;;;;5035836;28;20029;-51
2024/02/15 07:01:08;;;;;;;10.90;6.30;;;12.50;99.90;;;;;;5035600;28;20496;-36
2024/02/15 07:03:33;;;;;;;13.98;6.85;;;12.50;99.90;;;;;;5035505;28;20064;-41
2024/02/15 07:05:59;;;;;;;9.18;5.57;;;12.50;99.90;;;;;;5034177;28;20421;-37
2024/02/15 07:08:25;;;;;;;13.10;5.28;;;12.50;99.90;;;;;;5035326;28;20037;-40
2024/02/15 07:10:51;;;;;;;7.72;5.68;;;12.50;99.90;;;;;;5035416;28;20441;-37
2024/02/15 07:13:17;;;;;;;14.10;5.43;;;12.40;99.90;;;;;;5035065;28;20108;-38
2024/02/15 07:15:44;;;;;;;11.93;5.70;;;12.50;99.90;;;;;;5035533;28;20490;-63
2024/02/15 07:18:16;;;;;;;11.27;5.30;;;12.50;99.90;;;;;;5055193;28;20096;-37
2024/02/15 07:20:41;;;;;;;10.30;5.10;;;12.50;99.90;;;;;;5054707;28;20025;-39
2024/02/15 07:23:07;;;;;;;20.33;5.10;;;12.50;99.90;;;;;;5043152;28;20033;-38
2024/02/15 07:25:33;;;;;;;9.70;4.93;;;12.50;99.90;;;;;;5035149;28;20133;-39
2024/02/15 07:27:59;;;;;;;6.40;4.57;;;12.50;99.90;;;;;;5034363;28;20382;-36
2024/02/15 07:30:24;;;;;;;10.15;4.68;;;12.50;99.90;;;;;;5040080;28;20025;-36
2024/02/15 07:32:51;;;;;;;7.88;3.92;;;12.50;99.90;;;;;;5033701;28;20033;-36
2024/02/15 07:35:19;;;;;;;7.15;4.43;;;12.40;99.90;;;;;;5035111;28;20478;-38
2024/02/15 07:37:53;;;;;;;11.65;4.20;;;12.40;99.90;;;;;;5034611;28;20032;-37
2024/02/15 07:40:21;;;;;;;8.85;4.05;;;12.40;99.90;;;;;;5035036;28;20520;-36
2024/02/15 07:42:48;;;;;;;6.45;3.53;;;12.50;99.90;;;;;;5034497;28;20017;-37
2024/02/15 07:45:13;;;;;;;8.98;3.70;;;12.50;99.90;;;;;;5034676;28;20036;-35
2024/02/15 07:47:39;;;;;;;7.53;3.72;;;12.40;99.90;;;;;;5040100;28;20107;-35
2024/02/15 07:50:05;;;;;;;4.30;3.40;;;12.50;99.90;;;;;;5053325;28;20029;-36
2024/02/15 07:52:31;;;;;;;8.05;3.28;;;12.50;99.90;;;;;;5051987;28;20489;-37
2024/02/15 07:54:56;;;;;;;9.23;3.80;;;12.50;99.90;;;;;;5034257;28;20029;-35
2024/02/15 07:57:22;;;;;;;6.78;3.13;;;12.50;99.90;;;;;;5034521;28;20029;-35
2024/02/15 07:59:49;;;;;;;3.58;3.28;;;12.50;99.90;;;;;;5034453;28;20072;-37
2024/02/15 08:02:18;;;;;;;5.50;4.05;;;12.40;99.90;;;;;;5046060;28;20028;-36
2024/02/15 08:04:44;;;;;;;6.78;3.40;;;12.40;99.90;;;;;;5052292;28;20035;-36
2024/02/15 08:07:10;;;;;;;7.03;3.72;;;12.40;99.90;;;;;;5053007;28;20108;-38
2024/02/15 08:09:37;;;;;;;6.25;3.83;;;12.50;99.90;;;;;;5036480;28;20033;-37
2024/02/15 08:12:03;;;;;;;10.02;4.13;;;12.50;99.90;;;;;;5033555;28;20087;-37
2024/02/15 08:14:29;;;;;;;7.60;3.78;;;12.50;99.90;;;;;;5044972;28;20029;-59
2024/02/15 08:16:55;;;;;;;6.97;3.67;;;12.50;99.90;;;;;;5052947;28;20045;-37
2024/02/15 08:19:22;;;;;;;8.48;3.63;;;12.50;99.90;;;;;;5054292;28;20469;-45
2024/02/15 08:21:50;;;;;;;7.22;3.78;;;12.50;99.90;;;;;;5043911;28;20040;-37
2024/02/15 08:24:16;;;;;;;6.50;3.88;;;12.50;99.90;;;;;;5037245;28;20037;-38
2024/02/15 08:26:42;;;;;;;5.47;3.80;;;12.50;99.90;;;;;;5034006;28;20100;-37
2024/02/15 08:29:13;;;;;;;4.65;3.08;;;12.50;99.90;;;;;;5034209;28;20486;-41
2024/02/15 08:31:41;;;;;;;9.27;4.68;;;12.60;99.90;;;;;;5049234;28;20103;-38
2024/02/15 08:34:09;;;;;;;7.72;3.50;;;12.50;99.90;;;;;;5045618;28;20094;-38
2024/02/15 08:36:35;;;;;;;7.90;3.20;;;12.60;99.90;;;;;;5047260;28;20378;-37
2024/02/15 08:39:01;;;;;;;8.15;3.20;;;12.60;99.90;;;;;;5038866;28;20116;-37
2024/02/15 08:41:27;;;;;;;7.72;3.30;;;12.60;99.90;;;;;;5041876;28;20100;-37
2024/02/15 08:43:53;;;;;;;5.82;2.60;;;12.60;99.90;;;;;;5053294;28;20025;-37
2024/02/15 08:46:20;;;;;;;7.38;3.22;;;12.60;99.90;;;;;;5053479;28;20052;-37
2024/02/15 08:48:46;;;;;;;9.75;2.63;;;12.60;99.90;;;;;;5051618;28;20021;-37
2024/02/15 08:51:12;;;;;;;8.75;2.90;;;12.50;99.90;;;;;;5053017;28;20033;-36
2024/02/15 08:53:38;;;;;;;7.43;3.10;;;12.60;99.90;;;;;;5038647;28;20442;-35
2024/02/15 08:56:10;;;;;;;5.15;2.78;;;12.50;99.90;;;;;;5039737;28;20017;-37
2024/02/15 08:58:35;;;;;;;4.85;2.72;;;12.50;99.90;;;;;;5053193;28;20025;-37
2024/02/15 09:01:02;;;;;;;10.50;2.80;;;12.50;99.90;;;;;;5048060;28;20021;-37
2024/02/15 09:03:28;;;;;;;5.40;2.88;;;12.50;99.90;;;;;;5033204;28;20029;-71
2024/02/15 09:05:54;;;;;;;5.32;3.45;;;12.50;99.90;;;;;;5033593;28;20025;-37
2024/02/15 09:08:20;;;;;;;9.20;2.97;;;12.60;99.90;;;;;;5033143;28;20528;-38
2024/02/15 09:10:55;;;;;;;7.25;2.88;;;12.50;99.90;;;;;;5033639;28;20025;-38
2024/02/15 09:13:22;;;;;;;9.38;3.03;;;12.60;99.90;;;;;;5033265;28;20039;-38
2024/02/15 09:15:48;;;;;;;4.38;2.42;;;12.60;99.90;;;;;;5034203;28;20099;-39
2024/02/15 09:18:13;;;;;;;9.57;3.63;;;12.50;99.90;;;;;;5033546;28;20371;-64
2024/02/15 09:20:44;;;;;;;9.75;3.42;;;12.60;99.90;;;;;;5031832;28;20025;-38
2024/02/15 09:23:12;;;;;;;13.95;3.15;;;12.70;99.90;;;;;;5033320;28;20049;-52
2024/02/15 09:25:43;;;;;;;9.77;3.42;;;12.60;99.90;;;;;;5032836;28;20510;-54
2024/02/15 09:28:09;;;;;;;6.10;3.05;;;12.60;99.90;;;;;;5050955;28;20091;-48
2024/02/15 09:30:35;;;;;;;9.40;3.05;;;12.60;99.90;;;;;;5049731;28;20036;-51
2024/02/15 09:33:04;;;;;;;11.65;3.00;;;12.60;99.90;;;;;;5044295;28;20501;-50
2024/02/15 09:35:30;;;;;;;6.78;2.75;;;12.60;99.90;;;;;;5052601;28;20100;-53
2024/02/15 09:37:56;;;;;;;11.00;3.35;;;12.60;99.90;;;;;;5051979;28;20103;-52
2024/02/15 09:40:25;;;;;;;5.13;2.58;;;12.70;99.90;;;;;;5036248;28;20501;-52
2024/02/15 09:42:52;;;;;;;10.05;3.03;;;12.70;99.90;;;;;;5033066;28;20037;-53
2024/02/15 09:45:20;;;;;;;8.30;3.03;;;12.70;99.90;;;;;;5034791;28;20025;-52
2024/02/15 09:47:49;;;;;;;6.35;3.13;;;12.70;99.90;;;;;;5052533;28;20263;-52
2024/02/15 09:50:16;;;;;;;9.43;2.65;;;12.80;99.90;;;;;;5051101;28;20485;-52
2024/02/15 09:52:45;;;;;;;9.82;3.08;;;12.80;99.90;;;;;;5052506;28;20013;-53
2024/02/15 09:55:13;;;;;;;11.65;2.72;;;12.90;99.90;;;;;;5048907;28;20036;-60
2024/02/15 09:57:46;;;;;;;6.93;2.75;;;12.90;99.90;;;;;;5052580;28;20485;-52
2024/02/15 10:00:16;;;;;;;15.38;2.80;;;13.00;99.90;;;;;;5050202;28;20488;-53
2024/02/15 10:02:50;;;;;;;8.85;3.13;;;13.10;99.90;;;;;;5032043;28;20025;-53
2024/02/15 10:05:17;;;;;;;11.57;2.92;;;13.10;99.90;;;;;;5052641;28;20033;-53
2024/02/15 10:07:45;;;;;;;11.93;2.50;;;13.20;99.90;;;;;;5052487;28;20027;-52
2024/02/15 10:10:25;;;;;;;7.05;2.58;;;13.20;99.90;;;;;;5037024;28;20120;-51
2024/02/15 10:12:53;;;;;;;11.05;2.97;;;13.30;99.90;;;;;;5053100;28;20025;-54
2024/02/15 10:15:31;;;;;;;7.07;3.25;;;13.30;99.90;;;;;;5056201;28;20029;-50
2024/02/15 10:18:01;;;;;;;7.00;2.72;;;13.40;99.90;;;;;;5036994;28;20497;-52
2024/02/15 10:20:27;;;;;;;4.93;2.95;;;13.40;99.90;;;;;;5037696;28;20097;-53
2024/02/15 10:23:08;;;;;;;11.45;2.92;;;13.40;99.90;;;;;;5053580;28;20115;-52
2024/02/15 10:25:35;;;;;;;10.90;4.15;;;13.50;99.90;;;;;;5047137;28;20025;-54
2024/02/15 10:28:10;;;;;;;7.85;3.65;;;13.50;99.90;;;;;;5055225;28;20029;-53
2024/02/15 10:30:43;;;;;;;14.43;3.25;;;13.70;99.90;;;;;;5056121;28;20025;-54
2024/02/15 10:33:09;;;;;;;13.20;2.72;;;13.70;99.90;;;;;;5054048;28;20082;-54
2024/02/15 10:35:36;;;;;;;8.65;3.22;;;13.80;99.90;;;;;;5040789;28;20366;-52
2024/02/15 10:38:25;;;;;;;11.65;3.53;;;13.80;99.90;;;;;;5054049;28;20017;-53
2024/02/15 10:41:05;;;;;;;6.43;3.70;;;13.90;99.90;;;;;;5053981;28;20474;-55
2024/02/15 10:43:31;;;;;;;10.48;3.25;;;14.00;99.90;;;;;;5053785;28;20029;-51
2024/02/15 10:45:59;;;;;;;10.50;3.70;;;14.00;99.90;;;;;;5036121;28;20119;-53
2024/02/15 10:48:24;;;;;;;10.93;3.30;;;14.00;99.90;;;;;;5044297;28;20021;-54
2024/02/15 10:50:53;;;;;;;17.73;3.45;;;14.10;99.90;;;;;;5055724;28;20398;-53
2024/02/15 10:53:27;;;;;;;6.57;3.55;;;14.10;99.90;;;;;;5044401;28;20482;-53
2024/02/15 10:56:18;;;;;;;11.00;3.25;;;14.10;99.90;;;;;;5036025;28;20513;-51
2024/02/15 10:59:08;;;;;;;8.57;3.17;;;14.10;99.90;;;;;;5035595;28;20017;-51
2024/02/15 11:01:37;;;;;;;14.40;3.90;;;14.10;99.90;;;;;;5036145;28;20025;-51
2024/02/15 11:04:08;;;;;;;13.77;3.38;;;14.10;99.90;;;;;;5049335;28;20382;-51
2024/02/15 11:06:38;;;;;;;8.40;3.35;;;14.10;99.90;;;;;;5055304;28;20059;-51
2024/02/15 11:09:06;;;;;;;9.40;4.13;;;14.10;99.90;;;;;;5037259;28;20029;-52
2024/02/15 11:11:32;;;;;;;6.00;3.50;;;14.00;99.90;;;;;;5045594;28;20425;-49
2024/02/15 11:14:23;;;;;;;12.63;3.60;;;14.00;99.90;;;;;;5035189;28;20552;-49
2024/02/15 11:16:48;;;;;;;13.07;4.07;;;14.10;99.90;;;;;;5047983;28;20044;-47
2024/02/15 11:19:35;;;;;;;11.82;4.20;;;14.10;99.90;;;;;;5053021;28;20029;-49
2024/02/15 11:22:04;;;;;;;13.60;4.83;;;14.10;99.90;;;;;;5055176;28;20517;-51
2024/02/15 11:24:37;;;;;;;9.73;3.85;;;14.20;99.90;;;;;;5035653;28;20435;-50
2024/02/15 11:27:04;;;;;;;11.30;5.97;;;14.30;99.90;;;;;;5035354;28;20072;-51
2024/02/15 11:29:51;;;;;;;12.98;4.45;;;14.30;99.90;;;;;;5035147;28;20045;-52
2024/02/15 11:32:49;;;;;;;14.65;6.10;;;14.30;99.90;;;;;;5051590;28;20132;-49
2024/02/15 11:35:17;;;;;;;20.70;7.55;;;14.30;99.90;;;;;;5034835;28;20045;-48
2024/02/15 11:37:51;;;;;;;15.35;5.18;;;14.40;99.90;;;;;;5035849;28;20025;-50
2024/02/15 11:40:41;;;;;;;8.35;4.90;;;14.50;99.90;;;;;;5034774;28;20485;-54
2024/02/15 11:43:08;;;;;;;10.75;4.28;;;14.50;99.90;;;;;;5034797;28;20025;-37
2024/02/15 11:45:40;;;;;;;17.17;6.47;;;14.60;99.90;;;;;;5034901;28;20029;-38
2024/02/15 11:48:11;;;;;;;11.05;4.53;;;14.70;99.90;;;;;;5035497;28;20041;-35
2024/02/15 11:50:39;;;;;;;11.10;4.97;;;14.80;99.90;;;;;;5035006;28;20481;-35
2024/02/15 11:53:09;;;;;;;12.35;4.95;;;14.80;99.90;;;;;;5034733;28;20032;-37
2024/02/15 11:55:35;;;;;;;13.43;5.55;;;14.80;99.90;;;;;;5035185;28;20022;-34
2024/02/15 11:58:16;;;;;;;7.22;5.00;;;14.90;99.90;;;;;;5034516;28;20025;-35
2024/02/15 12:20:15;;;;;;;6.30;4.53;;;15.50;99.90;;;;;;5053246;28;20040;-34
2024/02/15 12:22:47;;;;;;;13.65;6.78;;;15.50;99.90;;;;;;5042853;28;20409;-35
2024/02/15 12:25:18;;;;;;;8.73;4.82;;;15.50;99.90;;;;;;5034189;28;20477;-35
2024/02/15 12:27:46;;;;;;;7.85;4.57;;;15.60;99.90;;;;;;5036092;28;20060;-36
2024/02/15 12:30:20;;;;;;;9.98;4.30;;;15.60;99.90;;;;;;5049032;28;20021;-35
2024/02/15 12:32:49;;;;;;;7.38;3.83;;;15.70;99.90;;;;;;5049047;28;20033;-35
2024/02/15 12:35:20;;;;;;;6.70;4.22;;;15.80;99.90;;;;;;5041503;28;20021;-36
2024/02/15 12:37:46;;;;;;;11.15;3.78;;;15.90;99.90;;;;;;5044049;28;20040;-36
2024/02/15 12:40:21;;;;;;;7.25;3.58;;;15.90;99.90;;;;;;5033454;28;20093;-35
2024/02/15 12:42:48;;;;;;;8.05;3.45;;;16.00;99.90;;;;;;5032444;28;20029;-37
2024/02/15 12:45:20;;;;;;;10.40;3.58;;;16.00;99.90;;;;;;5033665;28;20029;-35
2024/02/15 12:47:50;;;;;;;7.13;4.43;;;16.10;99.90;;;;;;5033547;28;20398;-36
2024/02/15 12:50:18;;;;;;;4.55;3.15;;;16.10;99.90;;;;;;5033521;28;20371;-35
2024/02/15 12:52:47;;;;;;;5.35;2.90;;;16.20;99.90;;;;;;5033866;28;20029;-36
2024/02/15 12:55:13;;;;;;;7.95;2.83;;;16.30;99.90;;;;;;5051144;28;20500;-35
2024/02/15 12:57:42;;;;;;;7.10;2.50;;;16.30;99.90;;;;;;5052962;28;20509;-36
2024/02/15 13:00:14;;;;;;;5.90;2.90;;;16.30;99.90;;;;;;5053328;28;20021;-37
2024/02/15 13:02:40;;;;;;;3.25;2.30;;;16.30;99.90;;;;;;5045437;28;20025;-37
2024/02/15 13:05:09;;;;;;;7.75;2.38;;;16.30;99.90;;;;;;5052856;28;20044;-36
2024/02/15 13:07:38;;;;;;;6.95;2.30;;;16.30;99.90;;;;;;5048639;28;20036;-36
2024/02/15 13:10:07;;;;;;;7.03;2.03;;;16.40;99.90;;;;;;5033198;28;20524;-36
2024/02/15 13:12:36;;;;;;;8.77;2.30;;;16.50;99.90;;;;;;5032989;28;20113;-36
2024/02/15 13:15:04;;;;;;;7.18;2.22;;;16.60;99.90;;;;;;5038529;28;20102;-35
2024/02/15 13:17:30;;;;;;;7.00;2.40;;;16.70;99.90;;;;;;5051985;28;20044;-35